sensor_id;sensor_type;location;lat;lon;timestamp;temperature;humidity
17092;DHT22;8661;45.700;4.880;2022-11-20T00:02:21;7.30;99.90
17092;DHT22;8661;45.700;4.880;2022-11-20T00:04:48;7.40;99.90
17092;DHT22;8661;45.700;4.880;2022-11-20T00:07:15;7.40;99.90
17092;DHT22;8661;45.700;4.880;2022-11-20T00:09:42;7.50;99.90
17092;DHT22;8661;45.700;4.880;2022-11-20T00:12:09;7.50;99.90
17092;DHT22;8661;45.700;4.880;2022-11-20T00:14:36;7.50;99.90
17092;DHT22;8661;45.700;4.880;2022-11-20T00:17:03;7.60;99.90
17092;DHT22;8661;45.700;4.880;2022-11-20T00:19:31;7.60;99.90
17092;DHT22;8661;45.700;4.880;2022-11-20T00:21:58;7.70;99.90
17092;DHT22;8661;45.700;4.880;2022-11-20T00:24:25;7.70;99.90
17092;DHT22;8661;45.700;4.880;2022-11-20T00:26:52;7.70;99.90
17092;DHT22;8661;45.700;4.880;2022-11-20T00:29:19;7.70;99.90
17092;DHT22;8661;45.700;4.880;2022-11-20T00:31:46;7.70;99.90
17092;DHT22;8661;45.700;4.880;2022-11-20T00:34:13;7.80;99.90
17092;DHT22;8661;45.700;4.880;2022-11-20T00:36:41;7.80;99.90
17092;DHT22;8661;45.700;4.880;2022-11-20T00:39:08;7.80;99.90
17092;DHT22;8661;45.700;4.880;2022-11-20T00:41:36;7.80;99.90
17092;DHT22;8661;45.700;4.880;2022-11-20T00:44:03;7.80;99.90
17092;DHT22;8661;45.700;4.880;2022-11-20T00:46:30;7.80;99.90
17092;DHT22;8661;45.700;4.880;2022-11-20T00:48:57;7.80;99.90
17092;DHT22;8661;45.700;4.880;2022-11-20T00:51:26;7.80;99.90
17092;DHT22;8661;45.700;4.880;2022-11-20T00:53:56;7.80;99.90
17092;DHT22;8661;45.700;4.880;2022-11-20T00:56:24;7.70;99.90
17092;DHT22;8661;45.700;4.880;2022-11-20T00:58:51;7.60;99.90
17092;DHT22;8661;45.700;4.880;2022-11-20T01:01:19;7.60;99.90
17092;DHT22;8661;45.700;4.880;2022-11-20T01:03:48;7.50;99.90
17092;DHT22;8661;45.700;4.880;2022-11-20T01:06:19;7.40;99.90
17092;DHT22;8661;45.700;4.880;2022-11-20T01:08:47;7.30;99.90
17092;DHT22;8661;45.700;4.880;2022-11-20T01:11:16;7.20;99.90
17092;DHT22;8661;45.700;4.880;2022-11-20T01:13:45;7.10;99.90
17092;DHT22;8661;45.700;4.880;2022-11-20T01:16:14;7.00;99.90
17092;DHT22;8661;45.700;4.880;2022-11-20T01:18:43;6.90;99.90
17092;DHT22;8661;45.700;4.880;2022-11-20T01:21:11;6.90;99.90
17092;DHT22;8661;45.700;4.880;2022-11-20T01:23:40;6.90;99.90
17092;DHT22;8661;45.700;4.880;2022-11-20T01:26:09;6.80;99.90
17092;DHT22;8661;45.700;4.880;2022-11-20T01:28:39;6.90;99.90
17092;DHT22;8661;45.700;4.880;2022-11-20T01:31:12;6.90;99.90
17092;DHT22;8661;45.700;4.880;2022-11-20T01:33:39;6.80;99.90
17092;DHT22;8661;45.700;4.880;2022-11-20T01:36:07;6.70;99.90
17092;DHT22;8661;45.700;4.880;2022-11-20T01:38:35;6.70;99.90
17092;DHT22;8661;45.700;4.880;2022-11-20T01:41:02;6.60;99.90
17092;DHT22;8661;45.700;4.880;2022-11-20T01:43:30;6.50;99.90
17092;DHT22;8661;45.700;4.880;2022-11-20T01:46:13;6.50;99.90
17092;DHT22;8661;45.700;4.880;2022-11-20T01:48:47;6.50;99.90
17092;DHT22;8661;45.700;4.880;2022-11-20T01:51:21;6.50;99.90
17092;DHT22;8661;45.700;4.880;2022-11-20T01:53:50;6.50;99.90
17092;DHT22;8661;45.700;4.880;2022-11-20T01:56:18;6.50;99.90
17092;DHT22;8661;45.700;4.880;2022-11-20T01:58:48;6.50;99.90
17092;DHT22;8661;45.700;4.880;2022-11-20T02:01:18;6.40;99.90
17092;DHT22;8661;45.700;4.880;2022-11-20T02:03:46;6.50;99.90
17092;DHT22;8661;45.700;4.880;2022-11-20T02:06:17;6.40;99.90
17092;DHT22;8661;45.700;4.880;2022-11-20T02:08:46;6.40;99.90
17092;DHT22;8661;45.700;4.880;2022-11-20T02:11:13;6.40;99.90
17092;DHT22;8661;45.700;4.880;2022-11-20T02:13:40;6.30;99.90
17092;DHT22;8661;45.700;4.880;2022-11-20T02:16:13;6.30;99.90
17092;DHT22;8661;45.700;4.880;2022-11-20T02:18:43;6.30;99.90
17092;DHT22;8661;45.700;4.880;2022-11-20T02:21:19;6.30;99.90
17092;DHT22;8661;45.700;4.880;2022-11-20T02:24:01;6.30;99.90
17092;DHT22;8661;45.700;4.880;2022-11-20T02:26:32;6.20;99.90
17092;DHT22;8661;45.700;4.880;2022-11-20T02:29:02;6.20;99.90
17092;DHT22;8661;45.700;4.880;2022-11-20T02:31:33;6.10;99.90
17092;DHT22;8661;45.700;4.880;2022-11-20T02:34:01;6.10;99.90
17092;DHT22;8661;45.700;4.880;2022-11-20T02:36:28;6.10;99.90
17092;DHT22;8661;45.700;4.880;2022-11-20T02:38:58;6.10;99.90
17092;DHT22;8661;45.700;4.880;2022-11-20T02:41:31;6.10;99.90
17092;DHT22;8661;45.700;4.880;2022-11-20T02:43:58;6.10;99.90
17092;DHT22;8661;45.700;4.880;2022-11-20T02:46:25;6.10;99.90
17092;DHT22;8661;45.700;4.880;2022-11-20T02:48:52;6.00;99.90
17092;DHT22;8661;45.700;4.880;2022-11-20T02:51:19;6.00;99.90
17092;DHT22;8661;45.700;4.880;2022-11-20T02:53:46;6.00;99.90
17092;DHT22;8661;45.700;4.880;2022-11-20T02:56:15;6.10;99.90
17092;DHT22;8661;45.700;4.880;2022-11-20T02:58:42;6.00;99.90
17092;DHT22;8661;45.700;4.880;2022-11-20T03:01:09;6.00;99.90
17092;DHT22;8661;45.700;4.880;2022-11-20T03:03:36;5.90;99.90
17092;DHT22;8661;45.700;4.880;2022-11-20T03:06:04;6.00;99.90
17092;DHT22;8661;45.700;4.880;2022-11-20T03:08:31;6.00;99.90
17092;DHT22;8661;45.700;4.880;2022-11-20T03:11:02;6.00;99.90
17092;DHT22;8661;45.700;4.880;2022-11-20T03:13:31;6.00;99.90
17092;DHT22;8661;45.700;4.880;2022-11-20T03:16:03;6.10;99.90
17092;DHT22;8661;45.700;4.880;2022-11-20T03:18:30;6.10;99.90
17092;DHT22;8661;45.700;4.880;2022-11-20T03:20:58;6.10;99.90
17092;DHT22;8661;45.700;4.880;2022-11-20T03:23:25;6.10;99.90
17092;DHT22;8661;45.700;4.880;2022-11-20T03:25:52;6.20;99.90
17092;DHT22;8661;45.700;4.880;2022-11-20T03:28:19;6.20;99.90
17092;DHT22;8661;45.700;4.880;2022-11-20T03:30:48;6.20;99.90
17092;DHT22;8661;45.700;4.880;2022-11-20T03:33:15;6.20;99.90
17092;DHT22;8661;45.700;4.880;2022-11-20T03:35:42;6.20;99.90
17092;DHT22;8661;45.700;4.880;2022-11-20T03:38:09;6.30;99.90
17092;DHT22;8661;45.700;4.880;2022-11-20T03:40:36;6.30;99.90
17092;DHT22;8661;45.700;4.880;2022-11-20T03:43:03;6.30;99.90
17092;DHT22;8661;45.700;4.880;2022-11-20T03:45:30;6.40;99.90
17092;DHT22;8661;45.700;4.880;2022-11-20T03:47:58;6.30;99.90
17092;DHT22;8661;45.700;4.880;2022-11-20T03:50:25;6.40;99.90
17092;DHT22;8661;45.700;4.880;2022-11-20T03:52:52;6.40;99.90
17092;DHT22;8661;45.700;4.880;2022-11-20T03:55:19;6.40;99.90
17092;DHT22;8661;45.700;4.880;2022-11-20T03:57:46;6.40;99.90
17092;DHT22;8661;45.700;4.880;2022-11-20T04:00:14;6.40;99.90
17092;DHT22;8661;45.700;4.880;2022-11-20T04:02:41;6.40;99.90
17092;DHT22;8661;45.700;4.880;2022-11-20T04:05:10;6.50;99.90
17092;DHT22;8661;45.700;4.880;2022-11-20T04:07:39;6.40;99.90
17092;DHT22;8661;45.700;4.880;2022-11-20T04:10:07;6.40;99.90
17092;DHT22;8661;45.700;4.880;2022-11-20T04:12:34;6.50;99.90
17092;DHT22;8661;45.700;4.880;2022-11-20T04:15:01;6.40;99.90
17092;DHT22;8661;45.700;4.880;2022-11-20T04:17:28;6.40;99.90
17092;DHT22;8661;45.700;4.880;2022-11-20T04:19:55;6.40;99.90
17092;DHT22;8661;45.700;4.880;2022-11-20T04:22:23;6.30;99.90
17092;DHT22;8661;45.700;4.880;2022-11-20T04:24:50;6.20;99.90
17092;DHT22;8661;45.700;4.880;2022-11-20T04:27:17;6.10;99.90
17092;DHT22;8661;45.700;4.880;2022-11-20T04:29:44;6.10;99.90
17092;DHT22;8661;45.700;4.880;2022-11-20T04:32:11;6.00;99.90
17092;DHT22;8661;45.700;4.880;2022-11-20T04:34:38;5.90;99.90
17092;DHT22;8661;45.700;4.880;2022-11-20T04:37:05;5.90;99.90
17092;DHT22;8661;45.700;4.880;2022-11-20T04:39:34;5.90;99.90
17092;DHT22;8661;45.700;4.880;2022-11-20T04:42:01;5.90;99.90
17092;DHT22;8661;45.700;4.880;2022-11-20T04:44:45;5.90;99.90
17092;DHT22;8661;45.700;4.880;2022-11-20T04:47:12;6.00;99.90
17092;DHT22;8661;45.700;4.880;2022-11-20T04:49:39;6.00;99.90
17092;DHT22;8661;45.700;4.880;2022-11-20T04:52:06;6.10;99.90
17092;DHT22;8661;45.700;4.880;2022-11-20T04:54:34;6.10;99.90
17092;DHT22;8661;45.700;4.880;2022-11-20T04:57:01;6.00;99.90
17092;DHT22;8661;45.700;4.880;2022-11-20T04:59:28;6.00;99.90
17092;DHT22;8661;45.700;4.880;2022-11-20T05:01:55;6.00;99.90
17092;DHT22;8661;45.700;4.880;2022-11-20T05:04:23;6.00;99.90
17092;DHT22;8661;45.700;4.880;2022-11-20T05:06:50;6.00;99.90
17092;DHT22;8661;45.700;4.880;2022-11-20T05:09:17;5.90;99.90
17092;DHT22;8661;45.700;4.880;2022-11-20T05:11:45;5.90;99.90
17092;DHT22;8661;45.700;4.880;2022-11-20T05:14:12;5.90;99.90
17092;DHT22;8661;45.700;4.880;2022-11-20T05:16:39;5.90;99.90
17092;DHT22;8661;45.700;4.880;2022-11-20T05:19:06;5.90;99.90
17092;DHT22;8661;45.700;4.880;2022-11-20T05:21:33;5.90;99.90
17092;DHT22;8661;45.700;4.880;2022-11-20T05:24:00;5.90;99.90
17092;DHT22;8661;45.700;4.880;2022-11-20T05:26:30;6.00;99.90
17092;DHT22;8661;45.700;4.880;2022-11-20T05:28:58;6.00;99.90
17092;DHT22;8661;45.700;4.880;2022-11-20T05:31:25;6.00;99.90
17092;DHT22;8661;45.700;4.880;2022-11-20T05:33:52;6.10;99.90
17092;DHT22;8661;45.700;4.880;2022-11-20T05:36:19;6.20;99.90
17092;DHT22;8661;45.700;4.880;2022-11-20T05:38:46;6.20;99.90
17092;DHT22;8661;45.700;4.880;2022-11-20T05:41:15;6.20;99.90
17092;DHT22;8661;45.700;4.880;2022-11-20T05:43:44;6.20;99.90
17092;DHT22;8661;45.700;4.880;2022-11-20T05:46:15;6.30;99.90
17092;DHT22;8661;45.700;4.880;2022-11-20T05:48:43;6.30;99.90
17092;DHT22;8661;45.700;4.880;2022-11-20T05:51:12;6.30;99.90
17092;DHT22;8661;45.700;4.880;2022-11-20T05:53:39;6.40;99.90
17092;DHT22;8661;45.700;4.880;2022-11-20T05:56:08;6.50;99.90
17092;DHT22;8661;45.700;4.880;2022-11-20T05:58:39;6.50;99.90
17092;DHT22;8661;45.700;4.880;2022-11-20T06:01:09;6.50;99.90
17092;DHT22;8661;45.700;4.880;2022-11-20T06:03:38;6.50;99.90
17092;DHT22;8661;45.700;4.880;2022-11-20T06:06:06;6.50;99.90
17092;DHT22;8661;45.700;4.880;2022-11-20T06:08:33;6.50;99.90
17092;DHT22;8661;45.700;4.880;2022-11-20T06:11:04;6.50;99.90
17092;DHT22;8661;45.700;4.880;2022-11-20T06:13:31;6.50;99.90
17092;DHT22;8661;45.700;4.880;2022-11-20T06:15:58;6.60;99.90
17092;DHT22;8661;45.700;4.880;2022-11-20T06:18:27;6.60;99.90
17092;DHT22;8661;45.700;4.880;2022-11-20T06:21:04;6.60;99.90
17092;DHT22;8661;45.700;4.880;2022-11-20T06:23:33;6.50;99.90
17092;DHT22;8661;45.700;4.880;2022-11-20T06:26:02;6.50;99.90
17092;DHT22;8661;45.700;4.880;2022-11-20T06:28:29;6.50;99.90
17092;DHT22;8661;45.700;4.880;2022-11-20T06:30:57;6.50;99.90
17092;DHT22;8661;45.700;4.880;2022-11-20T06:33:24;6.50;99.90
17092;DHT22;8661;45.700;4.880;2022-11-20T06:35:56;6.50;99.90
17092;DHT22;8661;45.700;4.880;2022-11-20T06:38:25;6.50;99.90
17092;DHT22;8661;45.700;4.880;2022-11-20T06:40:52;6.50;99.90
17092;DHT22;8661;45.700;4.880;2022-11-20T06:43:19;6.50;99.90
17092;DHT22;8661;45.700;4.880;2022-11-20T06:45:51;6.50;99.90
17092;DHT22;8661;45.700;4.880;2022-11-20T06:48:19;6.40;99.90
17092;DHT22;8661;45.700;4.880;2022-11-20T06:50:46;6.50;99.90
17092;DHT22;8661;45.700;4.880;2022-11-20T06:53:13;6.50;99.90
17092;DHT22;8661;45.700;4.880;2022-11-20T06:55:45;6.50;99.90
17092;DHT22;8661;45.700;4.880;2022-11-20T06:58:12;6.50;99.90
17092;DHT22;8661;45.700;4.880;2022-11-20T07:00:39;6.60;99.90
17092;DHT22;8661;45.700;4.880;2022-11-20T07:03:08;6.50;99.90
17092;DHT22;8661;45.700;4.880;2022-11-20T07:05:35;6.60;99.90
17092;DHT22;8661;45.700;4.880;2022-11-20T07:08:03;6.60;99.90
17092;DHT22;8661;45.700;4.880;2022-11-20T07:10:30;6.60;99.90
17092;DHT22;8661;45.700;4.880;2022-11-20T07:12:59;6.70;99.90
17092;DHT22;8661;45.700;4.880;2022-11-20T07:15:26;6.70;99.90
17092;DHT22;8661;45.700;4.880;2022-11-20T07:17:53;6.80;99.90
17092;DHT22;8661;45.700;4.880;2022-11-20T07:20:20;6.90;99.90
17092;DHT22;8661;45.700;4.880;2022-11-20T07:22:53;7.00;99.90
17092;DHT22;8661;45.700;4.880;2022-11-20T07:25:20;7.10;99.90
17092;DHT22;8661;45.700;4.880;2022-11-20T07:27:47;7.20;99.90
17092;DHT22;8661;45.700;4.880;2022-11-20T07:30:15;7.30;99.90
17092;DHT22;8661;45.700;4.880;2022-11-20T07:32:45;7.30;99.90
17092;DHT22;8661;45.700;4.880;2022-11-20T07:35:12;7.40;99.90
17092;DHT22;8661;45.700;4.880;2022-11-20T07:37:39;7.40;99.90
17092;DHT22;8661;45.700;4.880;2022-11-20T07:40:07;7.40;99.90
17092;DHT22;8661;45.700;4.880;2022-11-20T07:42:34;7.50;99.90
17092;DHT22;8661;45.700;4.880;2022-11-20T07:45:01;7.50;99.90
17092;DHT22;8661;45.700;4.880;2022-11-20T07:47:35;7.50;99.90
17092;DHT22;8661;45.700;4.880;2022-11-20T07:50:02;7.60;99.90
17092;DHT22;8661;45.700;4.880;2022-11-20T07:52:29;7.70;99.90
17092;DHT22;8661;45.700;4.880;2022-11-20T07:54:56;7.70;99.90
17092;DHT22;8661;45.700;4.880;2022-11-20T07:57:23;7.90;99.90
17092;DHT22;8661;45.700;4.880;2022-11-20T07:59:50;8.10;99.90
17092;DHT22;8661;45.700;4.880;2022-11-20T08:02:17;8.10;99.90
17092;DHT22;8661;45.700;4.880;2022-11-20T08:04:45;8.10;99.90
17092;DHT22;8661;45.700;4.880;2022-11-20T08:07:12;8.00;99.90
17092;DHT22;8661;45.700;4.880;2022-11-20T08:09:39;8.10;99.90
17092;DHT22;8661;45.700;4.880;2022-11-20T08:12:06;8.20;99.90
17092;DHT22;8661;45.700;4.880;2022-11-20T08:14:51;8.20;99.90
17092;DHT22;8661;45.700;4.880;2022-11-20T08:17:18;8.20;99.90
17092;DHT22;8661;45.700;4.880;2022-11-20T08:19:46;8.20;99.90
17092;DHT22;8661;45.700;4.880;2022-11-20T08:22:13;8.20;99.90
17092;DHT22;8661;45.700;4.880;2022-11-20T08:24:41;8.30;99.90
17092;DHT22;8661;45.700;4.880;2022-11-20T08:27:08;8.30;99.90
17092;DHT22;8661;45.700;4.880;2022-11-20T08:29:35;8.40;99.90
17092;DHT22;8661;45.700;4.880;2022-11-20T08:32:02;8.60;99.90
17092;DHT22;8661;45.700;4.880;2022-11-20T08:34:29;8.80;99.90
17092;DHT22;8661;45.700;4.880;2022-11-20T08:36:58;9.00;99.90
17092;DHT22;8661;45.700;4.880;2022-11-20T08:39:25;9.10;99.90
17092;DHT22;8661;45.700;4.880;2022-11-20T08:41:52;9.20;99.90
17092;DHT22;8661;45.700;4.880;2022-11-20T08:44:19;9.30;99.90
17092;DHT22;8661;45.700;4.880;2022-11-20T08:46:46;9.60;99.90
17092;DHT22;8661;45.700;4.880;2022-11-20T08:49:14;9.80;99.90
17092;DHT22;8661;45.700;4.880;2022-11-20T08:51:41;10.10;99.90
17092;DHT22;8661;45.700;4.880;2022-11-20T08:54:10;10.40;99.90
17092;DHT22;8661;45.700;4.880;2022-11-20T08:56:40;11.70;99.90
17092;DHT22;8661;45.700;4.880;2022-11-20T08:59:07;14.20;99.90
17092;DHT22;8661;45.700;4.880;2022-11-20T09:01:34;16.10;99.90
17092;DHT22;8661;45.700;4.880;2022-11-20T09:04:01;16.70;99.90
17092;DHT22;8661;45.700;4.880;2022-11-20T09:06:30;18.20;99.90
17092;DHT22;8661;45.700;4.880;2022-11-20T09:08:57;18.80;97.10
17092;DHT22;8661;45.700;4.880;2022-11-20T09:11:25;17.50;97.10
17092;DHT22;8661;45.700;4.880;2022-11-20T09:13:52;16.90;98.90
17092;DHT22;8661;45.700;4.880;2022-11-20T09:16:19;17.00;99.30
17092;DHT22;8661;45.700;4.880;2022-11-20T09:18:46;17.10;98.80
17092;DHT22;8661;45.700;4.880;2022-11-20T09:21:16;16.80;98.90
17092;DHT22;8661;45.700;4.880;2022-11-20T09:23:43;16.50;99.30
17092;DHT22;8661;45.700;4.880;2022-11-20T09:26:12;15.90;99.90
17092;DHT22;8661;45.700;4.880;2022-11-20T09:28:41;15.60;99.90
17092;DHT22;8661;45.700;4.880;2022-11-20T09:31:09;15.40;99.90
17092;DHT22;8661;45.700;4.880;2022-11-20T09:33:36;15.70;99.90
17092;DHT22;8661;45.700;4.880;2022-11-20T09:36:04;16.00;99.40
17092;DHT22;8661;45.700;4.880;2022-11-20T09:38:31;16.40;98.40
17092;DHT22;8661;45.700;4.880;2022-11-20T09:41:03;16.30;98.20
17092;DHT22;8661;45.700;4.880;2022-11-20T09:43:42;16.20;97.30
17092;DHT22;8661;45.700;4.880;2022-11-20T09:46:19;16.40;96.80
17092;DHT22;8661;45.700;4.880;2022-11-20T09:49:02;16.60;96.50
17092;DHT22;8661;45.700;4.880;2022-11-20T09:51:39;16.80;96.00
17092;DHT22;8661;45.700;4.880;2022-11-20T09:54:16;16.80;96.00
17092;DHT22;8661;45.700;4.880;2022-11-20T09:56:47;17.10;95.20
17092;DHT22;8661;45.700;4.880;2022-11-20T09:59:27;17.40;94.50
17092;DHT22;8661;45.700;4.880;2022-11-20T10:01:59;17.70;92.60
17092;DHT22;8661;45.700;4.880;2022-11-20T10:04:29;17.90;92.30
17092;DHT22;8661;45.700;4.880;2022-11-20T10:07:03;18.00;93.20
17092;DHT22;8661;45.700;4.880;2022-11-20T10:09:33;18.30;91.80
17092;DHT22;8661;45.700;4.880;2022-11-20T10:12:09;18.50;91.80
17092;DHT22;8661;45.700;4.880;2022-11-20T10:14:52;18.70;90.90
17092;DHT22;8661;45.700;4.880;2022-11-20T10:17:30;18.80;90.50
17092;DHT22;8661;45.700;4.880;2022-11-20T10:20:15;18.90;90.20
17092;DHT22;8661;45.700;4.880;2022-11-20T10:23:01;19.10;87.10
17092;DHT22;8661;45.700;4.880;2022-11-20T10:25:37;19.30;88.00
17092;DHT22;8661;45.700;4.880;2022-11-20T10:28:19;19.40;87.60
17092;DHT22;8661;45.700;4.880;2022-11-20T10:30:57;19.40;86.50
17092;DHT22;8661;45.700;4.880;2022-11-20T10:33:30;19.40;84.70
17092;DHT22;8661;45.700;4.880;2022-11-20T10:36:07;19.70;85.00
17092;DHT22;8661;45.700;4.880;2022-11-20T10:38:38;19.80;83.20
17092;DHT22;8661;45.700;4.880;2022-11-20T10:41:07;20.00;83.30
17092;DHT22;8661;45.700;4.880;2022-11-20T10:43:58;20.10;83.20
17092;DHT22;8661;45.700;4.880;2022-11-20T10:46:37;20.20;82.70
17092;DHT22;8661;45.700;4.880;2022-11-20T10:49:14;20.60;81.60
17092;DHT22;8661;45.700;4.880;2022-11-20T10:51:52;20.60;79.30
17092;DHT22;8661;45.700;4.880;2022-11-20T10:54:31;20.60;79.10
17092;DHT22;8661;45.700;4.880;2022-11-20T10:57:04;20.70;77.00
17092;DHT22;8661;45.700;4.880;2022-11-20T10:59:41;20.60;77.80
17092;DHT22;8661;45.700;4.880;2022-11-20T11:02:18;20.70;76.40
17092;DHT22;8661;45.700;4.880;2022-11-20T11:04:49;20.70;75.30
17092;DHT22;8661;45.700;4.880;2022-11-20T11:07:20;20.80;75.50
17092;DHT22;8661;45.700;4.880;2022-11-20T11:09:51;20.80;74.40
17092;DHT22;8661;45.700;4.880;2022-11-20T11:12:19;20.80;75.00
17092;DHT22;8661;45.700;4.880;2022-11-20T11:14:48;20.60;75.20
17092;DHT22;8661;45.700;4.880;2022-11-20T11:17:27;20.60;75.00
17092;DHT22;8661;45.700;4.880;2022-11-20T11:20:05;20.70;74.40
17092;DHT22;8661;45.700;4.880;2022-11-20T11:22:34;20.60;72.70
17092;DHT22;8661;45.700;4.880;2022-11-20T11:25:20;20.50;73.90
17092;DHT22;8661;45.700;4.880;2022-11-20T11:27:49;20.70;73.10
17092;DHT22;8661;45.700;4.880;2022-11-20T11:30:18;20.60;73.10
17092;DHT22;8661;45.700;4.880;2022-11-20T11:32:45;20.80;73.00
17092;DHT22;8661;45.700;4.880;2022-11-20T11:35:22;20.90;72.70
17092;DHT22;8661;45.700;4.880;2022-11-20T11:37:50;20.70;69.80
17092;DHT22;8661;45.700;4.880;2022-11-20T11:40:21;20.70;72.90
17092;DHT22;8661;45.700;4.880;2022-11-20T11:42:54;20.90;71.30
17092;DHT22;8661;45.700;4.880;2022-11-20T11:45:21;20.90;72.40
17092;DHT22;8661;45.700;4.880;2022-11-20T11:47:48;20.90;71.70
17092;DHT22;8661;45.700;4.880;2022-11-20T11:50:21;20.40;72.30
17092;DHT22;8661;45.700;4.880;2022-11-20T11:53:05;20.00;72.90
17092;DHT22;8661;45.700;4.880;2022-11-20T11:55:37;20.10;72.60
17092;DHT22;8661;45.700;4.880;2022-11-20T11:58:16;19.80;73.10
17092;DHT22;8661;45.700;4.880;2022-11-20T12:00:51;20.20;71.80
17092;DHT22;8661;45.700;4.880;2022-11-20T12:03:24;20.40;71.70
17092;DHT22;8661;45.700;4.880;2022-11-20T12:05:57;20.10;72.40
17092;DHT22;8661;45.700;4.880;2022-11-20T12:08:32;20.20;72.00
17092;DHT22;8661;45.700;4.880;2022-11-20T12:11:12;20.50;72.60
17092;DHT22;8661;45.700;4.880;2022-11-20T12:13:46;20.60;69.50
17092;DHT22;8661;45.700;4.880;2022-11-20T12:16:18;20.50;70.30
17092;DHT22;8661;45.700;4.880;2022-11-20T12:18:46;20.80;70.60
17092;DHT22;8661;45.700;4.880;2022-11-20T12:21:25;20.70;71.00
17092;DHT22;8661;45.700;4.880;2022-11-20T12:24:25;20.70;68.80
17092;DHT22;8661;45.700;4.880;2022-11-20T12:27:04;20.60;69.70
17092;DHT22;8661;45.700;4.880;2022-11-20T12:29:43;20.90;70.00
17092;DHT22;8661;45.700;4.880;2022-11-20T12:32:47;20.90;68.50
17092;DHT22;8661;45.700;4.880;2022-11-20T12:35:35;20.60;69.10
17092;DHT22;8661;45.700;4.880;2022-11-20T12:38:33;20.30;71.60
17092;DHT22;8661;45.700;4.880;2022-11-20T12:41:07;20.10;69.80
17092;DHT22;8661;45.700;4.880;2022-11-20T12:43:45;20.30;70.60
17092;DHT22;8661;45.700;4.880;2022-11-20T12:46:36;20.60;69.50
17092;DHT22;8661;45.700;4.880;2022-11-20T12:49:17;20.80;67.80
17092;DHT22;8661;45.700;4.880;2022-11-20T12:51:57;20.70;66.90
17092;DHT22;8661;45.700;4.880;2022-11-20T12:54:54;20.90;67.30
17092;DHT22;8661;45.700;4.880;2022-11-20T12:57:33;21.00;68.40
17092;DHT22;8661;45.700;4.880;2022-11-20T13:00:18;20.60;68.30
17092;DHT22;8661;45.700;4.880;2022-11-20T13:05:58;20.10;70.00
17092;DHT22;8661;45.700;4.880;2022-11-20T13:08:29;20.10;70.40
17092;DHT22;8661;45.700;4.880;2022-11-20T13:11:07;20.30;69.40
17092;DHT22;8661;45.700;4.880;2022-11-20T13:13:42;20.30;69.50
17092;DHT22;8661;45.700;4.880;2022-11-20T13:16:16;20.60;67.70
17092;DHT22;8661;45.700;4.880;2022-11-20T13:18:44;20.60;66.80
17092;DHT22;8661;45.700;4.880;2022-11-20T13:21:15;20.70;65.80
17092;DHT22;8661;45.700;4.880;2022-11-20T13:23:42;20.30;65.20
17092;DHT22;8661;45.700;4.880;2022-11-20T13:26:17;19.90;66.00
17092;DHT22;8661;45.700;4.880;2022-11-20T13:28:46;19.60;66.50
17092;DHT22;8661;45.700;4.880;2022-11-20T13:31:29;19.40;67.40
17092;DHT22;8661;45.700;4.880;2022-11-20T13:33:57;19.00;66.90
17092;DHT22;8661;45.700;4.880;2022-11-20T13:36:28;18.90;68.10
17092;DHT22;8661;45.700;4.880;2022-11-20T13:38:56;19.10;67.30
17092;DHT22;8661;45.700;4.880;2022-11-20T13:41:26;18.90;68.20
17092;DHT22;8661;45.700;4.880;2022-11-20T13:43:59;18.60;68.60
17092;DHT22;8661;45.700;4.880;2022-11-20T13:46:39;18.60;69.60
17092;DHT22;8661;45.700;4.880;2022-11-20T13:49:10;18.40;68.70
17092;DHT22;8661;45.700;4.880;2022-11-20T13:51:42;18.20;69.80
17092;DHT22;8661;45.700;4.880;2022-11-20T14:00:44;18.10;67.90
17092;DHT22;8661;45.700;4.880;2022-11-20T14:03:18;18.00;68.60
17092;DHT22;8661;45.700;4.880;2022-11-20T14:05:51;17.70;70.50
17092;DHT22;8661;45.700;4.880;2022-11-20T14:08:27;17.60;70.50
17092;DHT22;8661;45.700;4.880;2022-11-20T14:11:05;17.40;71.10
17092;DHT22;8661;45.700;4.880;2022-11-20T14:13:33;17.30;71.30
17092;DHT22;8661;45.700;4.880;2022-11-20T14:16:01;17.00;71.80
17092;DHT22;8661;45.700;4.880;2022-11-20T14:18:28;16.80;72.30
17092;DHT22;8661;45.700;4.880;2022-11-20T14:20:55;16.40;73.20
17092;DHT22;8661;45.700;4.880;2022-11-20T14:23:26;16.10;74.40
17092;DHT22;8661;45.700;4.880;2022-11-20T14:25:54;15.50;75.90
17092;DHT22;8661;45.700;4.880;2022-11-20T14:28:26;15.20;77.50
17092;DHT22;8661;45.700;4.880;2022-11-20T14:30:54;15.00;78.60
17092;DHT22;8661;45.700;4.880;2022-11-20T14:33:23;14.90;78.90
17092;DHT22;8661;45.700;4.880;2022-11-20T14:35:53;14.70;79.50
17092;DHT22;8661;45.700;4.880;2022-11-20T14:38:23;14.50;80.80
17092;DHT22;8661;45.700;4.880;2022-11-20T14:40:51;14.30;81.50
17092;DHT22;8661;45.700;4.880;2022-11-20T14:43:22;14.00;81.90
17092;DHT22;8661;45.700;4.880;2022-11-20T14:45:56;13.90;82.90
17092;DHT22;8661;45.700;4.880;2022-11-20T14:48:29;13.70;83.80
17092;DHT22;8661;45.700;4.880;2022-11-20T14:50:57;13.60;84.80
17092;DHT22;8661;45.700;4.880;2022-11-20T14:53:25;13.50;84.60
17092;DHT22;8661;45.700;4.880;2022-11-20T14:55:57;13.40;85.10
17092;DHT22;8661;45.700;4.880;2022-11-20T14:58:26;13.30;85.80
17092;DHT22;8661;45.700;4.880;2022-11-20T15:00:54;13.20;85.60
17092;DHT22;8661;45.700;4.880;2022-11-20T15:03:22;13.10;86.20
17092;DHT22;8661;45.700;4.880;2022-11-20T15:05:51;13.00;87.20
17092;DHT22;8661;45.700;4.880;2022-11-20T15:08:18;13.00;87.50
17092;DHT22;8661;45.700;4.880;2022-11-20T15:10:46;12.90;86.60
17092;DHT22;8661;45.700;4.880;2022-11-20T15:13:24;12.80;87.20
17092;DHT22;8661;45.700;4.880;2022-11-20T15:15:54;12.80;87.30
17092;DHT22;8661;45.700;4.880;2022-11-20T15:18:23;12.80;86.90
17092;DHT22;8661;45.700;4.880;2022-11-20T15:20:55;12.70;87.30
17092;DHT22;8661;45.700;4.880;2022-11-20T15:23:22;12.70;87.70
17092;DHT22;8661;45.700;4.880;2022-11-20T15:25:49;12.70;87.80
17092;DHT22;8661;45.700;4.880;2022-11-20T15:28:19;12.60;88.20
17092;DHT22;8661;45.700;4.880;2022-11-20T15:30:48;12.50;88.80
17092;DHT22;8661;45.700;4.880;2022-11-20T15:33:16;12.40;89.10
17092;DHT22;8661;45.700;4.880;2022-11-20T15:35:44;12.30;89.70
17092;DHT22;8661;45.700;4.880;2022-11-20T15:38:12;12.30;90.40
17092;DHT22;8661;45.700;4.880;2022-11-20T15:40:39;12.20;90.80
17092;DHT22;8661;45.700;4.880;2022-11-20T15:43:07;12.10;90.50
17092;DHT22;8661;45.700;4.880;2022-11-20T15:45:37;12.00;90.60
17092;DHT22;8661;45.700;4.880;2022-11-20T15:48:09;11.90;90.80
17092;DHT22;8661;45.700;4.880;2022-11-20T15:50:38;11.90;91.10
17092;DHT22;8661;45.700;4.880;2022-11-20T15:53:05;11.80;91.40
17092;DHT22;8661;45.700;4.880;2022-11-20T15:55:34;11.70;91.80
17092;DHT22;8661;45.700;4.880;2022-11-20T15:58:01;11.70;92.00
17092;DHT22;8661;45.700;4.880;2022-11-20T16:00:28;11.60;92.20
17092;DHT22;8661;45.700;4.880;2022-11-20T16:02:55;11.60;92.40
17092;DHT22;8661;45.700;4.880;2022-11-20T16:05:22;11.50;92.80
17092;DHT22;8661;45.700;4.880;2022-11-20T16:07:50;11.40;93.00
17092;DHT22;8661;45.700;4.880;2022-11-20T16:10:17;11.40;93.40
17092;DHT22;8661;45.700;4.880;2022-11-20T16:12:46;11.40;93.50
17092;DHT22;8661;45.700;4.880;2022-11-20T16:15:30;11.40;93.70
17092;DHT22;8661;45.700;4.880;2022-11-20T16:18:14;11.30;94.30
17092;DHT22;8661;45.700;4.880;2022-11-20T16:20:42;11.20;94.70
17092;DHT22;8661;45.700;4.880;2022-11-20T16:23:09;11.10;95.10
17092;DHT22;8661;45.700;4.880;2022-11-20T16:25:36;11.00;95.50